createdAt,value
2023-09-23T00:00:04.533Z,70.46
2023-09-23T00:02:32.147Z,70.60
2023-09-23T00:05:00.139Z,70.17
2023-09-23T00:07:29.209Z,69.96
2023-09-23T00:09:56.772Z,69.93
2023-09-23T00:12:24.511Z,69.56
2023-09-23T00:14:52.639Z,69.91
2023-09-23T00:17:21.858Z,69.03
2023-09-23T00:19:49.466Z,69.02
2023-09-23T00:22:18.040Z,69.04
2023-09-23T00:24:45.986Z,68.85
2023-09-23T00:27:13.915Z,68.67
2023-09-23T00:29:41.569Z,68.84
2023-09-23T00:32:09.158Z,71.24
2023-09-23T00:34:38.837Z,70.42
2023-09-23T00:37:08.393Z,69.91
2023-09-23T00:39:42.810Z,69.89
2023-09-23T00:42:11.313Z,69.96
2023-09-23T00:44:42.587Z,69.90
2023-09-23T00:47:14.846Z,70.18
2023-09-23T00:49:45.778Z,69.23
2023-09-23T00:52:15.316Z,70.43
2023-09-23T00:54:47.185Z,70.20
2023-09-23T00:57:17.944Z,70.01
2023-09-23T00:59:45.532Z,70.23
2023-09-23T01:02:15.131Z,69.91
2023-09-23T01:04:44.875Z,70.67
2023-09-23T01:07:12.965Z,70.45
2023-09-23T01:09:41.214Z,70.82
2023-09-23T01:12:10.385Z,71.01
2023-09-23T01:14:38.699Z,70.27
2023-09-23T01:17:12.974Z,70.37
2023-09-23T01:19:40.840Z,70.16
2023-09-23T01:22:09.921Z,71.02
2023-09-23T01:24:38.892Z,70.95
2023-09-23T01:27:06.447Z,70.99
2023-09-23T01:29:34.278Z,71.04
2023-09-23T01:32:14.931Z,71.29
2023-09-23T01:34:42.547Z,70.62
2023-09-23T01:37:10.399Z,70.87
2023-09-23T01:39:41.555Z,70.32
2023-09-23T01:42:09.523Z,70.52
2023-09-23T01:44:37.546Z,71.09
2023-09-23T01:47:05.831Z,70.34
2023-09-23T01:49:33.465Z,70.61
2023-09-23T01:52:03.771Z,69.64
2023-09-23T01:54:31.361Z,70.84
2023-09-23T01:57:00.338Z,70.19
2023-09-23T01:59:27.981Z,69.57
2023-09-23T02:01:55.584Z,69.83
2023-09-23T02:04:23.296Z,70.21
2023-09-23T02:06:52.754Z,70.15
2023-09-23T02:09:20.312Z,70.04
2023-09-23T02:11:49.238Z,70.11
2023-09-23T02:14:18.192Z,70.61
2023-09-23T02:16:48.228Z,69.99
2023-09-23T02:19:15.882Z,69.88
2023-09-23T02:21:43.436Z,69.34
2023-09-23T02:24:10.982Z,69.56
2023-09-23T02:26:38.522Z,69.51
2023-09-23T02:29:07.810Z,69.69
2023-09-23T02:31:37.010Z,70.63
2023-09-23T02:34:07.055Z,70.75
2023-09-23T02:36:36.293Z,70.60
2023-09-23T02:39:11.912Z,70.41
2023-09-23T02:41:39.604Z,70.15
2023-09-23T02:44:07.301Z,70.06
2023-09-23T02:46:36.311Z,69.93
2023-09-23T02:49:04.007Z,70.16
2023-09-23T02:51:31.580Z,69.96
2023-09-23T02:53:59.159Z,69.83
2023-09-23T02:56:28.370Z,70.19
2023-09-23T02:58:57.564Z,70.19
2023-09-23T03:01:26.779Z,70.25
2023-09-23T03:03:56.356Z,70.18
2023-09-23T03:06:24.999Z,70.69
2023-09-23T03:08:55.331Z,70.99
2023-09-23T03:11:24.131Z,71.19
2023-09-23T03:13:53.952Z,71.25
2023-09-23T03:16:29.741Z,71.85
2023-09-23T03:19:11.645Z,71.37
2023-09-23T03:21:42.206Z,71.94
2023-09-23T03:24:11.249Z,71.48
2023-09-23T03:26:39.014Z,71.68
2023-09-23T03:29:07.622Z,72.52
2023-09-23T03:31:36.062Z,73.41
2023-09-23T03:34:05.109Z,72.72
2023-09-23T03:36:33.420Z,72.33
2023-09-23T03:39:01.865Z,72.38
2023-09-23T03:41:29.612Z,72.02
2023-09-23T03:43:57.239Z,72.09
2023-09-23T03:46:25.662Z,72.21
2023-09-23T03:48:53.357Z,72.33
2023-09-23T03:51:22.322Z,71.87
2023-09-23T03:53:52.232Z,72.35
2023-09-23T03:56:20.498Z,72.43
2023-09-23T03:58:48.227Z,72.06
2023-09-23T04:01:15.919Z,71.96
2023-09-23T04:03:43.855Z,71.91
2023-09-23T04:06:12.755Z,72.17
2023-09-23T04:08:42.021Z,72.51
2023-09-23T04:11:10.088Z,72.26
2023-09-23T04:13:39.175Z,72.37
2023-09-23T04:16:07.495Z,72.44
2023-09-23T04:18:35.140Z,72.65
2023-09-23T04:21:03.199Z,72.05
2023-09-23T04:23:30.746Z,73.20
2023-09-23T04:26:01.009Z,72.46
2023-09-23T04:28:28.558Z,71.83
2023-09-23T04:30:58.604Z,71.62
2023-09-23T04:33:28.610Z,72.23
2023-09-23T04:35:58.037Z,72.28
2023-09-23T04:38:26.161Z,71.99
2023-09-23T04:40:54.210Z,71.15
2023-09-23T04:43:26.257Z,71.63
2023-09-23T04:45:53.861Z,71.28
2023-09-23T04:48:21.860Z,71.91
2023-09-23T04:50:49.544Z,71.77
2023-09-23T04:53:17.428Z,70.79
2023-09-23T04:55:46.942Z,71.66
2023-09-23T04:58:14.595Z,71.11
2023-09-23T05:00:43.566Z,70.57
2023-09-23T05:03:11.161Z,71.17
2023-09-23T05:05:38.899Z,70.63
2023-09-23T05:08:11.301Z,71.74
2023-09-23T05:10:40.535Z,71.79
2023-09-23T05:13:10.629Z,71.37
2023-09-23T05:15:38.546Z,71.78
2023-09-23T05:18:09.454Z,71.72
2023-09-23T05:20:37.229Z,71.77
2023-09-23T05:23:06.693Z,71.60
2023-09-23T05:25:34.513Z,71.61
2023-09-23T05:28:03.756Z,72.42
2023-09-23T05:30:31.383Z,72.58
2023-09-23T05:32:58.951Z,72.48
2023-09-23T05:35:29.012Z,71.66
2023-09-23T05:37:56.627Z,71.36
2023-09-23T05:40:28.734Z,71.28
2023-09-23T05:42:56.733Z,71.34
2023-09-23T05:45:25.600Z,71.12
2023-09-23T05:47:54.211Z,71.03
2023-09-23T05:50:22.625Z,70.26
2023-09-23T05:52:53.512Z,70.21
2023-09-23T05:55:21.313Z,71.13
2023-09-23T05:57:50.155Z,70.43
2023-09-23T06:00:19.156Z,70.93
2023-09-23T06:02:48.887Z,70.73
2023-09-23T06:05:17.011Z,70.22
2023-09-23T06:07:44.640Z,70.44
2023-09-23T06:10:16.084Z,70.30
2023-09-23T06:12:44.027Z,69.76
2023-09-23T06:15:12.077Z,70.18
2023-09-23T06:17:39.874Z,70.05
2023-09-23T06:20:10.712Z,70.30
2023-09-23T06:22:38.661Z,70.17
2023-09-23T06:25:07.478Z,70.41
2023-09-23T06:27:37.291Z,69.90
2023-09-23T06:30:06.336Z,70.50
2023-09-23T06:32:34.749Z,70.06
2023-09-23T06:35:02.787Z,69.99
2023-09-23T06:37:30.479Z,69.83
2023-09-23T06:39:58.523Z,70.11
2023-09-23T06:42:26.094Z,69.96
2023-09-23T06:44:54.987Z,70.09
2023-09-23T06:47:22.596Z,70.81
2023-09-23T06:49:50.211Z,70.02
2023-09-23T06:52:17.778Z,70.18
2023-09-23T06:54:45.568Z,69.68
2023-09-23T06:57:14.377Z,69.38
2023-09-23T06:59:41.983Z,69.47
2023-09-23T07:02:11.099Z,69.29
2023-09-23T07:04:38.799Z,69.43
2023-09-23T07:07:06.382Z,69.78
2023-09-23T07:09:34.273Z,70.10
2023-09-23T07:12:01.841Z,69.51
2023-09-23T07:14:31.524Z,69.10
2023-09-23T07:16:59.224Z,69.56
2023-09-23T07:19:28.152Z,70.24
2023-09-23T07:21:55.723Z,69.81
2023-09-23T07:24:23.263Z,69.92
2023-09-23T07:26:50.816Z,70.53
2023-09-23T07:29:18.379Z,69.75
2023-09-23T07:31:45.981Z,70.01
2023-09-23T07:34:13.628Z,70.40
2023-09-23T07:36:44.026Z,70.89
2023-09-23T07:39:12.448Z,70.21
2023-09-23T07:41:39.978Z,69.83
2023-09-23T07:44:08.199Z,69.65
2023-09-23T07:46:35.904Z,69.56
2023-09-23T07:49:05.563Z,69.52
2023-09-23T07:51:33.345Z,69.87
2023-09-23T07:54:02.786Z,69.14
2023-09-23T07:56:30.364Z,69.09
2023-09-23T07:58:59.718Z,69.55
2023-09-23T08:01:27.292Z,68.99
2023-09-23T08:03:54.892Z,69.06
2023-09-23T08:06:22.450Z,69.13
2023-09-23T08:08:50.157Z,68.42
2023-09-23T08:11:19.062Z,68.69
2023-09-23T08:13:47.119Z,69.28
2023-09-23T08:16:14.867Z,68.51
2023-09-23T08:18:42.609Z,68.73
2023-09-23T08:21:10.171Z,68.63
2023-09-23T08:23:37.746Z,68.52
2023-09-23T08:26:06.115Z,68.09
2023-09-23T08:28:36.043Z,67.66
2023-09-23T08:31:03.593Z,69.22
2023-09-23T08:33:31.457Z,69.38
2023-09-23T08:35:59.032Z,69.34
2023-09-23T08:38:26.617Z,68.81
2023-09-23T08:40:55.023Z,68.64
2023-09-23T08:43:37.196Z,68.48
2023-09-23T08:46:07.145Z,67.43
2023-09-23T08:48:36.526Z,66.50
2023-09-23T08:51:05.262Z,66.81
2023-09-23T08:53:35.770Z,67.07
2023-09-23T08:56:03.355Z,66.47
2023-09-23T08:58:31.710Z,66.04
2023-09-23T09:00:59.449Z,66.46
2023-09-23T09:03:28.849Z,65.28
2023-09-23T09:05:57.056Z,65.66
2023-09-23T09:08:24.831Z,65.42
2023-09-23T09:10:52.514Z,65.65
2023-09-23T09:13:20.177Z,65.72
2023-09-23T09:15:47.730Z,65.06
2023-09-23T09:18:15.902Z,64.95
2023-09-23T09:20:44.916Z,65.56
2023-09-23T09:23:16.008Z,65.05
2023-09-23T09:25:50.670Z,65.22
2023-09-23T09:28:20.632Z,64.42
2023-09-23T09:30:55.305Z,64.44
2023-09-23T09:33:26.744Z,63.43
2023-09-23T09:35:57.339Z,64.08
2023-09-23T09:38:25.977Z,63.66
2023-09-23T09:41:03.823Z,62.86
2023-09-23T09:43:34.251Z,62.93
2023-09-23T09:46:09.145Z,62.76
2023-09-23T09:48:40.428Z,63.47
2023-09-23T09:51:10.461Z,62.46
2023-09-23T09:53:39.058Z,61.21
2023-09-23T09:56:08.000Z,61.88
2023-09-23T09:58:39.384Z,60.93
2023-09-23T10:01:12.865Z,62.17
2023-09-23T10:03:42.518Z,61.74
2023-09-23T10:06:19.901Z,60.51
2023-09-23T10:08:49.264Z,59.87
2023-09-23T10:11:18.097Z,60.09
2023-09-23T10:13:47.206Z,59.95
2023-09-23T10:16:18.402Z,59.26
2023-09-23T10:18:46.752Z,59.88
2023-09-23T10:21:25.529Z,59.96
2023-09-23T10:23:54.366Z,59.02
2023-09-23T10:26:24.286Z,57.44
2023-09-23T10:28:59.348Z,58.42
2023-09-23T10:31:27.151Z,58.15
2023-09-23T10:33:55.593Z,58.18
2023-09-23T10:36:25.737Z,59.46
2023-09-23T10:38:53.447Z,58.67
2023-09-23T10:41:21.135Z,59.66
2023-09-23T10:43:54.831Z,59.19
2023-09-23T10:46:22.669Z,58.78
2023-09-23T10:48:50.256Z,58.60
2023-09-23T10:51:18.058Z,59.11
2023-09-23T10:53:47.149Z,58.39
2023-09-23T10:56:14.711Z,58.39
2023-09-23T10:58:42.665Z,57.89
2023-09-23T11:01:10.411Z,58.15
2023-09-23T11:03:41.807Z,57.80
2023-09-23T11:06:09.942Z,57.99
2023-09-23T11:08:38.201Z,57.84
2023-09-23T11:11:10.949Z,56.97
2023-09-23T11:13:38.665Z,56.73
2023-09-23T11:16:10.936Z,56.55
2023-09-23T11:18:39.464Z,56.25
2023-09-23T11:21:07.370Z,56.68
2023-09-23T11:23:35.715Z,55.31
2023-09-23T11:26:04.109Z,56.10
2023-09-23T11:28:33.015Z,55.67
2023-09-23T11:31:00.667Z,55.27
2023-09-23T11:33:28.299Z,55.34
2023-09-23T11:35:58.691Z,55.31
2023-09-23T11:38:26.469Z,55.80
2023-09-23T11:40:55.613Z,55.32
2023-09-23T11:43:23.372Z,53.79
2023-09-23T11:45:52.336Z,53.77
2023-09-23T11:48:21.350Z,54.02
2023-09-23T11:50:49.343Z,53.37
2023-09-23T11:53:16.964Z,53.60
2023-09-23T11:55:44.636Z,53.57
2023-09-23T11:58:12.220Z,53.03
2023-09-23T12:00:39.805Z,53.14
2023-09-23T12:03:08.809Z,52.98
2023-09-23T12:05:36.420Z,53.46
2023-09-23T12:08:05.070Z,53.17
2023-09-23T12:10:32.715Z,53.25
2023-09-23T12:13:06.248Z,52.68
2023-09-23T12:15:35.088Z,52.39
2023-09-23T12:18:02.877Z,53.11
2023-09-23T12:20:33.128Z,52.47
2023-09-23T12:23:01.869Z,53.43
2023-09-23T12:25:29.705Z,52.85
2023-09-23T12:27:57.245Z,52.40
2023-09-23T12:30:24.929Z,51.79
2023-09-23T12:32:52.514Z,51.68
2023-09-23T12:35:20.221Z,51.34
2023-09-23T12:37:49.559Z,50.96
2023-09-23T12:40:17.241Z,51.80
2023-09-23T12:42:48.635Z,50.96
2023-09-23T12:45:16.202Z,51.76
2023-09-23T12:47:55.933Z,50.68
2023-09-23T12:50:24.260Z,50.97
2023-09-23T12:52:54.255Z,51.55
2023-09-23T12:55:22.058Z,51.24
2023-09-23T12:57:50.287Z,50.99
2023-09-23T13:00:18.129Z,51.50
2023-09-23T13:02:45.975Z,51.91
2023-09-23T13:05:16.390Z,50.57
2023-09-23T13:07:44.239Z,50.85
2023-09-23T13:10:14.840Z,50.90
2023-09-23T13:12:43.696Z,52.08
2023-09-23T13:15:11.893Z,51.29
2023-09-23T13:17:39.618Z,51.09
2023-09-23T13:20:08.257Z,51.18
2023-09-23T13:22:35.822Z,50.38
2023-09-23T13:25:04.773Z,51.35
2023-09-23T13:27:34.292Z,50.25
2023-09-23T13:30:01.888Z,49.57
2023-09-23T13:32:29.929Z,49.76
2023-09-23T13:34:57.643Z,50.37
2023-09-23T13:37:25.187Z,51.16
2023-09-23T13:39:53.199Z,50.34
2023-09-23T13:42:20.760Z,50.60
2023-09-23T13:44:51.014Z,50.67
2023-09-23T13:47:19.143Z,50.48
2023-09-23T13:49:46.816Z,50.30
2023-09-23T13:52:14.609Z,50.09
2023-09-23T13:54:42.267Z,50.72
2023-09-23T13:57:10.006Z,50.43
2023-09-23T13:59:37.587Z,50.73
2023-09-23T14:02:06.683Z,50.50
2023-09-23T14:04:34.431Z,51.22
2023-09-23T14:07:02.013Z,51.28
2023-09-23T14:09:29.562Z,50.96
2023-09-23T14:11:57.854Z,51.32
2023-09-23T14:14:25.498Z,51.53
2023-09-23T14:16:53.189Z,51.34
2023-09-23T14:19:22.070Z,51.04
2023-09-23T14:21:49.880Z,50.69
2023-09-23T14:24:17.537Z,50.90
2023-09-23T14:26:45.520Z,51.54
2023-09-23T14:29:13.434Z,52.49
2023-09-23T14:31:41.046Z,53.05
2023-09-23T14:34:09.244Z,52.91
2023-09-23T14:36:38.788Z,52.77
2023-09-23T14:39:06.611Z,53.16
2023-09-23T14:41:35.983Z,53.70
2023-09-23T14:44:04.574Z,53.70
2023-09-23T14:46:32.614Z,53.50
2023-09-23T14:49:00.330Z,53.12
2023-09-23T14:51:28.243Z,53.14
2023-09-23T14:53:57.638Z,52.60
2023-09-23T14:56:27.273Z,52.67
2023-09-23T14:58:54.863Z,52.08
2023-09-23T15:01:22.570Z,51.83
2023-09-23T15:03:50.431Z,51.86
2023-09-23T15:06:18.050Z,51.56
2023-09-23T15:08:58.186Z,52.51
2023-09-23T15:11:29.702Z,51.93
2023-09-23T15:13:58.343Z,52.42
2023-09-23T15:16:26.206Z,52.87
2023-09-23T15:18:54.020Z,52.75
2023-09-23T15:21:22.378Z,52.91
2023-09-23T15:23:50.224Z,53.16
2023-09-23T15:26:18.856Z,53.45
2023-09-23T15:28:48.188Z,53.65
2023-09-23T15:31:15.860Z,53.51
2023-09-23T15:33:43.920Z,53.33
2023-09-23T15:36:13.408Z,53.83
2023-09-23T15:38:41.261Z,53.90
2023-09-23T15:41:10.120Z,54.02
2023-09-23T15:43:38.574Z,54.14
2023-09-23T15:46:07.562Z,54.58
2023-09-23T15:48:35.711Z,54.52
2023-09-23T15:51:11.009Z,55.33
2023-09-23T15:53:38.961Z,54.91
2023-09-23T15:56:07.861Z,54.92
2023-09-23T15:58:35.712Z,55.08
2023-09-23T16:01:05.319Z,55.02
2023-09-23T16:03:35.030Z,55.55
2023-09-23T16:06:03.087Z,54.62
2023-09-23T16:08:30.943Z,54.56
2023-09-23T16:10:58.906Z,55.09
2023-09-23T16:13:26.443Z,55.15
2023-09-23T16:15:54.323Z,54.56
2023-09-23T16:18:23.376Z,54.99
2023-09-23T16:20:52.923Z,54.72
2023-09-23T16:23:20.759Z,55.48
2023-09-23T16:25:48.412Z,55.46
2023-09-23T16:28:16.001Z,54.98
2023-09-23T16:30:43.730Z,55.82
2023-09-23T16:33:12.385Z,56.33
2023-09-23T16:35:40.073Z,56.77
2023-09-23T16:38:09.172Z,56.48
2023-09-23T16:40:37.086Z,56.87
2023-09-23T16:43:04.978Z,57.04
2023-09-23T16:45:32.721Z,57.05
2023-09-23T16:48:00.445Z,58.36
2023-09-23T16:50:28.338Z,58.49
2023-09-23T16:52:55.895Z,58.09
2023-09-23T16:55:24.818Z,58.34
2023-09-23T16:57:52.524Z,58.07
2023-09-23T17:00:20.099Z,57.50
2023-09-23T17:02:48.028Z,56.94
2023-09-23T17:05:16.028Z,57.42
2023-09-23T17:07:43.652Z,57.33
2023-09-23T17:10:11.791Z,57.77
2023-09-23T17:12:40.755Z,58.23
2023-09-23T17:15:09.901Z,58.04
2023-09-23T17:17:37.697Z,57.89
2023-09-23T17:20:06.575Z,57.72
2023-09-23T17:22:34.436Z,57.77
2023-09-23T17:25:02.248Z,58.31
2023-09-23T17:27:29.908Z,58.89
2023-09-23T17:29:58.820Z,58.70
2023-09-23T17:32:26.556Z,58.20
2023-09-23T17:34:54.173Z,59.11
2023-09-23T17:37:22.195Z,58.52
2023-09-23T17:39:49.934Z,59.21
2023-09-23T17:42:17.526Z,58.99
2023-09-23T17:44:46.616Z,59.73
2023-09-23T17:47:15.910Z,59.83
2023-09-23T17:49:43.484Z,60.01
2023-09-23T17:52:11.085Z,59.26
2023-09-23T17:54:38.760Z,59.87
2023-09-23T17:57:06.585Z,59.05
2023-09-23T17:59:34.993Z,58.53
2023-09-23T18:02:02.699Z,58.95
2023-09-23T18:04:31.792Z,59.32
2023-09-23T18:07:00.422Z,59.28
2023-09-23T18:09:28.258Z,59.66
2023-09-23T18:11:56.271Z,59.73
2023-09-23T18:14:23.993Z,60.17
2023-09-23T18:16:51.641Z,60.22
2023-09-23T18:19:19.591Z,60.20
2023-09-23T18:21:48.918Z,60.13
2023-09-23T18:24:16.677Z,60.19
2023-09-23T18:26:44.389Z,59.90
2023-09-23T18:29:12.856Z,59.88
2023-09-23T18:31:42.121Z,59.98
2023-09-23T18:34:09.852Z,60.10
2023-09-23T18:36:37.457Z,60.62
2023-09-23T18:39:07.118Z,60.10
2023-09-23T18:41:35.760Z,59.87
2023-09-23T18:44:04.568Z,59.68
2023-09-23T18:46:32.146Z,59.10
2023-09-23T18:48:59.820Z,59.35
2023-09-23T18:51:27.806Z,58.81
2023-09-23T18:53:54.692Z,59.35
2023-09-23T18:56:24.530Z,59.51
2023-09-23T18:58:52.405Z,58.98
2023-09-23T19:01:20.303Z,59.51
2023-09-23T19:03:48.234Z,59.70
2023-09-23T19:06:16.419Z,59.48
2023-09-23T19:08:44.968Z,59.45
2023-09-23T19:11:14.119Z,59.24
2023-09-23T19:13:43.274Z,59.57
2023-09-23T19:16:11.574Z,59.17
2023-09-23T19:18:39.181Z,59.44
2023-09-23T19:21:06.826Z,59.09
2023-09-23T19:23:34.581Z,59.37
2023-09-23T19:26:04.001Z,59.81
2023-09-23T19:28:31.886Z,60.11
2023-09-23T19:31:00.940Z,59.77
2023-09-23T19:33:28.558Z,59.08
2023-09-23T19:35:56.386Z,59.60
2023-09-23T19:38:24.029Z,59.61
2023-09-23T19:40:51.641Z,59.89
2023-09-23T19:43:19.650Z,59.55
2023-09-23T19:45:54.835Z,60.26
2023-09-23T19:48:23.900Z,60.16
2023-09-23T19:50:52.194Z,60.37
2023-09-23T19:53:19.930Z,60.33
2023-09-23T19:55:47.633Z,59.94
2023-09-23T19:58:17.564Z,60.11
2023-09-23T20:00:45.221Z,59.95
2023-09-23T20:03:14.878Z,60.56
2023-09-23T20:05:44.051Z,60.57
2023-09-23T20:08:12.608Z,60.37
2023-09-23T20:10:40.220Z,60.63
2023-09-23T20:13:07.887Z,60.33
2023-09-23T20:15:37.325Z,60.40
2023-09-23T20:18:07.557Z,61.02
2023-09-23T20:20:37.638Z,60.72
2023-09-23T20:23:06.620Z,61.41
2023-09-23T20:25:34.282Z,61.14
2023-09-23T20:28:01.900Z,61.33
2023-09-23T20:30:29.620Z,61.63
2023-09-23T20:32:57.368Z,61.19
2023-09-23T20:35:25.059Z,60.82
2023-09-23T20:37:53.135Z,60.72
2023-09-23T20:40:22.119Z,61.57
2023-09-23T20:42:49.672Z,61.20
2023-09-23T20:45:17.450Z,60.96
2023-09-23T20:47:45.149Z,61.37
2023-09-23T20:50:13.553Z,60.97
2023-09-23T20:52:42.483Z,61.19
2023-09-23T20:55:10.657Z,60.83
2023-09-23T20:57:39.568Z,61.13
2023-09-23T21:00:15.147Z,61.79
2023-09-23T21:02:43.514Z,61.51
2023-09-23T21:05:11.330Z,61.34
2023-09-23T21:07:38.878Z,61.11
2023-09-23T21:10:08.171Z,61.70
2023-09-23T21:12:36.033Z,61.74
2023-09-23T21:15:06.544Z,61.83
2023-09-23T21:17:35.960Z,61.63
2023-09-23T21:20:03.608Z,61.73
2023-09-23T21:22:31.169Z,62.06
2023-09-23T21:24:58.783Z,62.01
2023-09-23T21:27:26.580Z,61.94
2023-09-23T21:29:54.248Z,61.87
2023-09-23T21:32:23.335Z,61.51
2023-09-23T21:34:51.592Z,61.55
2023-09-23T21:37:19.185Z,62.01
2023-09-23T21:39:46.822Z,61.94
2023-09-23T21:42:14.365Z,62.21
2023-09-23T21:44:45.259Z,62.77
2023-09-23T21:47:16.506Z,62.67
2023-09-23T21:49:46.059Z,62.84
2023-09-23T21:52:13.755Z,63.04
2023-09-23T21:54:41.302Z,63.10
2023-09-23T21:57:09.251Z,62.72
2023-09-23T21:59:38.606Z,62.69
2023-09-23T22:02:06.975Z,62.13
2023-09-23T22:04:35.100Z,63.19
2023-09-23T22:07:04.208Z,63.09
2023-09-23T22:09:31.937Z,63.96
2023-09-23T22:12:02.453Z,63.20
2023-09-23T22:14:30.440Z,63.50
2023-09-23T22:16:58.033Z,62.53
2023-09-23T22:19:26.120Z,63.42
2023-09-23T22:21:53.754Z,63.35
2023-09-23T22:24:23.010Z,63.56
2023-09-23T22:26:53.897Z,63.57
2023-09-23T22:29:21.841Z,63.28
2023-09-23T22:31:49.512Z,63.64
2023-09-23T22:34:17.110Z,63.57
2023-09-23T22:36:46.123Z,63.85
2023-09-23T22:39:14.045Z,63.69
2023-09-23T22:41:43.643Z,63.79
2023-09-23T22:44:11.357Z,63.51
2023-09-23T22:46:39.815Z,63.43
2023-09-23T22:49:07.768Z,64.36
2023-09-23T22:51:35.319Z,63.65
2023-09-23T22:54:02.954Z,63.42
2023-09-23T22:56:34.419Z,63.29
2023-09-23T22:59:03.420Z,63.60
2023-09-23T23:01:32.418Z,63.52
2023-09-23T23:04:01.270Z,63.94
2023-09-23T23:06:29.859Z,63.49
2023-09-23T23:08:57.931Z,64.52
2023-09-23T23:11:25.654Z,64.00
2023-09-23T23:13:53.269Z,64.07
2023-09-23T23:16:22.199Z,63.71
2023-09-23T23:18:49.849Z,63.35
2023-09-23T23:21:17.464Z,63.76
2023-09-23T23:23:45.161Z,63.59
2023-09-23T23:26:13.641Z,63.81
2023-09-23T23:28:41.230Z,63.37
2023-09-23T23:31:09.254Z,64.03
2023-09-23T23:33:38.276Z,64.38
2023-09-23T23:36:07.454Z,64.12
2023-09-23T23:38:35.064Z,63.89
2023-09-23T23:41:03.049Z,63.66
2023-09-23T23:43:30.807Z,63.72
2023-09-23T23:45:59.668Z,64.21
2023-09-23T23:48:28.865Z,64.11
2023-09-23T23:51:05.358Z,64.21
2023-09-23T23:53:33.383Z,63.68
2023-09-23T23:56:01.573Z,64.13
2023-09-23T23:58:29.191Z,63.79
